sensor_id;sensor_type;location;lat;lon;timestamp;P1;durP1;ratioP1;P2;durP2;ratioP2
43327;SDS011;28923;45.412;10.852;2022-07-05T00:00:32;0.25;;;0.25;;
43327;SDS011;28923;45.412;10.852;2022-07-05T00:02:58;0.75;;;0.10;;
43327;SDS011;28923;45.412;10.852;2022-07-05T00:05:24;0.30;;;0.20;;
43327;SDS011;28923;45.412;10.852;2022-07-05T00:07:49;0.20;;;0.20;;
43327;SDS011;28923;45.412;10.852;2022-07-05T00:10:15;0.65;;;0.30;;
43327;SDS011;28923;45.412;10.852;2022-07-05T00:12:41;0.10;;;0.10;;
43327;SDS011;28923;45.412;10.852;2022-07-05T00:15:06;0.10;;;0.10;;
43327;SDS011;28923;45.412;10.852;2022-07-05T00:17:32;1.20;;;0.20;;
43327;SDS011;28923;45.412;10.852;2022-07-05T00:19:58;1.20;;;0.20;;
43327;SDS011;28923;45.412;10.852;2022-07-05T00:22:23;0.55;;;0.20;;
43327;SDS011;28923;45.412;10.852;2022-07-05T00:24:49;0.20;;;0.20;;
43327;SDS011;28923;45.412;10.852;2022-07-05T00:27:15;0.10;;;0.10;;
43327;SDS011;28923;45.412;10.852;2022-07-05T00:29:41;0.17;;;0.17;;
43327;SDS011;28923;45.412;10.852;2022-07-05T00:32:07;0.82;;;0.30;;
43327;SDS011;28923;45.412;10.852;2022-07-05T00:34:32;0.20;;;0.20;;
43327;SDS011;28923;45.412;10.852;2022-07-05T00:36:58;0.95;;;0.20;;
43327;SDS011;28923;45.412;10.852;2022-07-05T00:39:23;0.32;;;0.13;;
43327;SDS011;28923;45.412;10.852;2022-07-05T00:41:49;0.10;;;0.10;;
43327;SDS011;28923;45.412;10.852;2022-07-05T00:44:15;0.57;;;0.20;;
43327;SDS011;28923;45.412;10.852;2022-07-05T00:46:41;0.30;;;0.28;;
43327;SDS011;28923;45.412;10.852;2022-07-05T00:49:08;0.10;;;0.10;;
43327;SDS011;28923;45.412;10.852;2022-07-05T00:51:36;0.13;;;0.13;;
43327;SDS011;28923;45.412;10.852;2022-07-05T00:54:02;0.15;;;0.13;;
43327;SDS011;28923;45.412;10.852;2022-07-05T00:56:30;0.30;;;0.20;;
43327;SDS011;28923;45.412;10.852;2022-07-05T00:58:56;0.75;;;0.30;;
43327;SDS011;28923;45.412;10.852;2022-07-05T01:01:22;0.20;;;0.20;;
43327;SDS011;28923;45.412;10.852;2022-07-05T01:03:48;0.10;;;0.10;;
43327;SDS011;28923;45.412;10.852;2022-07-05T01:06:13;0.30;;;0.20;;
43327;SDS011;28923;45.412;10.852;2022-07-05T01:08:41;0.35;;;0.20;;
43327;SDS011;28923;45.412;10.852;2022-07-05T01:11:07;0.20;;;0.17;;
43327;SDS011;28923;45.412;10.852;2022-07-05T01:13:33;0.70;;;0.20;;
43327;SDS011;28923;45.412;10.852;2022-07-05T01:15:59;0.70;;;0.20;;
43327;SDS011;28923;45.412;10.852;2022-07-05T01:18:24;0.50;;;0.15;;
43327;SDS011;28923;45.412;10.852;2022-07-05T01:20:50;0.60;;;0.15;;
43327;SDS011;28923;45.412;10.852;2022-07-05T01:23:19;1.33;;;0.20;;
43327;SDS011;28923;45.412;10.852;2022-07-05T01:25:48;0.57;;;0.17;;
43327;SDS011;28923;45.412;10.852;2022-07-05T01:28:14;0.32;;;0.20;;
43327;SDS011;28923;45.412;10.852;2022-07-05T01:30:40;0.55;;;0.20;;
43327;SDS011;28923;45.412;10.852;2022-07-05T01:33:07;1.15;;;0.40;;
43327;SDS011;28923;45.412;10.852;2022-07-05T01:35:33;0.50;;;0.20;;
43327;SDS011;28923;45.412;10.852;2022-07-05T01:37:58;1.40;;;0.20;;
43327;SDS011;28923;45.412;10.852;2022-07-05T01:40:24;0.20;;;0.20;;
43327;SDS011;28923;45.412;10.852;2022-07-05T01:42:50;0.05;;;0.05;;
43327;SDS011;28923;45.412;10.852;2022-07-05T01:45:16;0.57;;;0.30;;
43327;SDS011;28923;45.412;10.852;2022-07-05T01:48:02;1.30;;;0.22;;
43327;SDS011;28923;45.412;10.852;2022-07-05T01:50:29;0.15;;;0.15;;
43327;SDS011;28923;45.412;10.852;2022-07-05T01:52:56;0.35;;;0.20;;
43327;SDS011;28923;45.412;10.852;2022-07-05T01:55:23;0.40;;;0.17;;
43327;SDS011;28923;45.412;10.852;2022-07-05T01:57:49;0.20;;;0.20;;
43327;SDS011;28923;45.412;10.852;2022-07-05T02:00:15;1.20;;;0.20;;
43327;SDS011;28923;45.412;10.852;2022-07-05T02:02:41;0.47;;;0.20;;
43327;SDS011;28923;45.412;10.852;2022-07-05T02:05:07;0.10;;;0.10;;
43327;SDS011;28923;45.412;10.852;2022-07-05T02:07:33;0.20;;;0.20;;
43327;SDS011;28923;45.412;10.852;2022-07-05T02:09:59;0.10;;;0.10;;
43327;SDS011;28923;45.412;10.852;2022-07-05T02:12:24;0.45;;;0.10;;
43327;SDS011;28923;45.412;10.852;2022-07-05T02:14:50;0.38;;;0.20;;
43327;SDS011;28923;45.412;10.852;2022-07-05T02:17:18;0.45;;;0.20;;
43327;SDS011;28923;45.412;10.852;2022-07-05T02:19:48;0.22;;;0.08;;
43327;SDS011;28923;45.412;10.852;2022-07-05T02:22:14;0.30;;;0.20;;
43327;SDS011;28923;45.412;10.852;2022-07-05T02:24:41;0.20;;;0.20;;
43327;SDS011;28923;45.412;10.852;2022-07-05T02:27:20;0.60;;;0.20;;
43327;SDS011;28923;45.412;10.852;2022-07-05T02:29:46;0.38;;;0.17;;
43327;SDS011;28923;45.412;10.852;2022-07-05T02:32:14;0.30;;;0.10;;
43327;SDS011;28923;45.412;10.852;2022-07-05T02:34:40;0.10;;;0.10;;
43327;SDS011;28923;45.412;10.852;2022-07-05T02:37:05;0.10;;;0.10;;
43327;SDS011;28923;45.412;10.852;2022-07-05T02:39:32;0.20;;;0.20;;
43327;SDS011;28923;45.412;10.852;2022-07-05T02:42:00;0.75;;;0.10;;
43327;SDS011;28923;45.412;10.852;2022-07-05T02:44:26;0.40;;;0.10;;
43327;SDS011;28923;45.412;10.852;2022-07-05T02:46:52;0.30;;;0.10;;
43327;SDS011;28923;45.412;10.852;2022-07-05T02:49:18;0.17;;;0.10;;
43327;SDS011;28923;45.412;10.852;2022-07-05T02:51:45;0.10;;;0.10;;
43327;SDS011;28923;45.412;10.852;2022-07-05T02:54:12;0.38;;;0.20;;
43327;SDS011;28923;45.412;10.852;2022-07-05T02:56:39;0.20;;;0.08;;
43327;SDS011;28923;45.412;10.852;2022-07-05T02:59:07;0.55;;;0.10;;
43327;SDS011;28923;45.412;10.852;2022-07-05T03:01:35;0.35;;;0.35;;
43327;SDS011;28923;45.412;10.852;2022-07-05T03:04:05;0.22;;;0.15;;
43327;SDS011;28923;45.412;10.852;2022-07-05T03:06:32;0.15;;;0.15;;
43327;SDS011;28923;45.412;10.852;2022-07-05T03:08:58;0.10;;;0.10;;
43327;SDS011;28923;45.412;10.852;2022-07-05T03:11:24;0.52;;;0.32;;
43327;SDS011;28923;45.412;10.852;2022-07-05T03:13:51;0.40;;;0.10;;
43327;SDS011;28923;45.412;10.852;2022-07-05T03:16:17;0.15;;;0.15;;
43327;SDS011;28923;45.412;10.852;2022-07-05T03:18:43;0.10;;;0.10;;
43327;SDS011;28923;45.412;10.852;2022-07-05T03:21:09;0.13;;;0.13;;
43327;SDS011;28923;45.412;10.852;2022-07-05T03:23:35;0.10;;;0.10;;
43327;SDS011;28923;45.412;10.852;2022-07-05T03:26:01;0.10;;;0.10;;
43327;SDS011;28923;45.412;10.852;2022-07-05T03:28:28;0.40;;;0.20;;
43327;SDS011;28923;45.412;10.852;2022-07-05T03:30:56;0.10;;;0.10;;
43327;SDS011;28923;45.412;10.852;2022-07-05T03:33:24;0.17;;;0.10;;
43327;SDS011;28923;45.412;10.852;2022-07-05T03:35:50;0.82;;;0.10;;
43327;SDS011;28923;45.412;10.852;2022-07-05T03:38:18;0.10;;;0.10;;
43327;SDS011;28923;45.412;10.852;2022-07-05T03:40:44;0.20;;;0.10;;
43327;SDS011;28923;45.412;10.852;2022-07-05T03:43:10;0.10;;;0.10;;
43327;SDS011;28923;45.412;10.852;2022-07-05T03:45:37;1.27;;;0.20;;
43327;SDS011;28923;45.412;10.852;2022-07-05T03:48:04;3.10;;;0.20;;
43327;SDS011;28923;45.412;10.852;2022-07-05T03:50:31;0.20;;;0.10;;
43327;SDS011;28923;45.412;10.852;2022-07-05T03:52:56;0.20;;;0.10;;
43327;SDS011;28923;45.412;10.852;2022-07-05T03:55:23;0.20;;;0.10;;
43327;SDS011;28923;45.412;10.852;2022-07-05T03:57:49;0.10;;;0.10;;
43327;SDS011;28923;45.412;10.852;2022-07-05T04:00:17;0.10;;;0.10;;
43327;SDS011;28923;45.412;10.852;2022-07-05T04:02:50;0.10;;;0.10;;
43327;SDS011;28923;45.412;10.852;2022-07-05T04:05:16;0.20;;;0.10;;
43327;SDS011;28923;45.412;10.852;2022-07-05T04:07:50;0.15;;;0.10;;
43327;SDS011;28923;45.412;10.852;2022-07-05T04:10:17;0.10;;;0.10;;
43327;SDS011;28923;45.412;10.852;2022-07-05T04:12:43;0.17;;;0.10;;
43327;SDS011;28923;45.412;10.852;2022-07-05T04:15:09;0.90;;;0.10;;
43327;SDS011;28923;45.412;10.852;2022-07-05T04:17:35;0.10;;;0.10;;
43327;SDS011;28923;45.412;10.852;2022-07-05T04:20:01;0.75;;;0.20;;
43327;SDS011;28923;45.412;10.852;2022-07-05T04:22:27;0.20;;;0.20;;
43327;SDS011;28923;45.412;10.852;2022-07-05T04:24:54;0.03;;;0.03;;
43327;SDS011;28923;45.412;10.852;2022-07-05T04:27:38;0.47;;;0.20;;
43327;SDS011;28923;45.412;10.852;2022-07-05T04:30:03;0.15;;;0.15;;
43327;SDS011;28923;45.412;10.852;2022-07-05T04:32:30;0.35;;;0.10;;
43327;SDS011;28923;45.412;10.852;2022-07-05T04:34:56;0.22;;;0.15;;
43327;SDS011;28923;45.412;10.852;2022-07-05T04:37:22;1.45;;;0.77;;
43327;SDS011;28923;45.412;10.852;2022-07-05T04:39:48;1.92;;;0.98;;
43327;SDS011;28923;45.412;10.852;2022-07-05T04:42:14;2.00;;;0.85;;
43327;SDS011;28923;45.412;10.852;2022-07-05T04:44:39;1.10;;;0.65;;
43327;SDS011;28923;45.412;10.852;2022-07-05T04:47:06;3.03;;;0.95;;
43327;SDS011;28923;45.412;10.852;2022-07-05T04:49:32;5.35;;;1.00;;
43327;SDS011;28923;45.412;10.852;2022-07-05T04:51:57;1.35;;;1.13;;
43327;SDS011;28923;45.412;10.852;2022-07-05T04:54:23;4.50;;;1.15;;
43327;SDS011;28923;45.412;10.852;2022-07-05T04:56:49;2.72;;;0.90;;
43327;SDS011;28923;45.412;10.852;2022-07-05T04:59:15;2.05;;;0.90;;
43327;SDS011;28923;45.412;10.852;2022-07-05T05:01:41;2.75;;;1.08;;
43327;SDS011;28923;45.412;10.852;2022-07-05T05:04:06;4.30;;;1.00;;
43327;SDS011;28923;45.412;10.852;2022-07-05T05:06:32;4.53;;;1.30;;
43327;SDS011;28923;45.412;10.852;2022-07-05T05:08:58;2.20;;;1.00;;
43327;SDS011;28923;45.412;10.852;2022-07-05T05:11:23;6.97;;;1.20;;
43327;SDS011;28923;45.412;10.852;2022-07-05T05:13:49;5.75;;;0.98;;
43327;SDS011;28923;45.412;10.852;2022-07-05T05:16:15;3.78;;;0.90;;
43327;SDS011;28923;45.412;10.852;2022-07-05T05:18:40;1.50;;;0.95;;
43327;SDS011;28923;45.412;10.852;2022-07-05T05:21:06;2.88;;;0.90;;
43327;SDS011;28923;45.412;10.852;2022-07-05T05:23:31;1.85;;;1.00;;
43327;SDS011;28923;45.412;10.852;2022-07-05T05:25:57;1.83;;;0.88;;
43327;SDS011;28923;45.412;10.852;2022-07-05T05:28:22;3.63;;;1.13;;
43327;SDS011;28923;45.412;10.852;2022-07-05T05:30:48;3.35;;;1.00;;
43327;SDS011;28923;45.412;10.852;2022-07-05T05:33:13;3.33;;;1.15;;
43327;SDS011;28923;45.412;10.852;2022-07-05T05:35:39;4.88;;;1.20;;
43327;SDS011;28923;45.412;10.852;2022-07-05T05:38:05;4.45;;;1.50;;
43327;SDS011;28923;45.412;10.852;2022-07-05T05:40:30;7.78;;;1.70;;
43327;SDS011;28923;45.412;10.852;2022-07-05T05:42:57;6.43;;;1.48;;
43327;SDS011;28923;45.412;10.852;2022-07-05T05:45:23;5.93;;;1.20;;
43327;SDS011;28923;45.412;10.852;2022-07-05T05:47:51;4.10;;;1.42;;
43327;SDS011;28923;45.412;10.852;2022-07-05T05:50:18;2.65;;;1.30;;
43327;SDS011;28923;45.412;10.852;2022-07-05T05:52:43;5.57;;;1.65;;
43327;SDS011;28923;45.412;10.852;2022-07-05T05:55:09;3.53;;;1.25;;
43327;SDS011;28923;45.412;10.852;2022-07-05T05:57:34;3.88;;;1.10;;
43327;SDS011;28923;45.412;10.852;2022-07-05T06:00:02;4.63;;;1.30;;
43327;SDS011;28923;45.412;10.852;2022-07-05T06:02:37;2.90;;;0.98;;
43327;SDS011;28923;45.412;10.852;2022-07-05T06:05:03;4.10;;;1.30;;
43327;SDS011;28923;45.412;10.852;2022-07-05T06:07:28;5.57;;;1.20;;
43327;SDS011;28923;45.412;10.852;2022-07-05T06:09:54;3.72;;;1.10;;
43327;SDS011;28923;45.412;10.852;2022-07-05T06:12:19;3.20;;;1.20;;
43327;SDS011;28923;45.412;10.852;2022-07-05T06:14:45;4.57;;;1.00;;
43327;SDS011;28923;45.412;10.852;2022-07-05T06:17:10;4.85;;;1.38;;
43327;SDS011;28923;45.412;10.852;2022-07-05T06:19:36;6.22;;;1.60;;
43327;SDS011;28923;45.412;10.852;2022-07-05T06:22:02;4.05;;;1.45;;
43327;SDS011;28923;45.412;10.852;2022-07-05T06:24:27;6.93;;;2.00;;
43327;SDS011;28923;45.412;10.852;2022-07-05T06:26:53;4.60;;;1.65;;
43327;SDS011;28923;45.412;10.852;2022-07-05T06:29:18;5.28;;;1.40;;
43327;SDS011;28923;45.412;10.852;2022-07-05T06:31:44;3.67;;;1.40;;
43327;SDS011;28923;45.412;10.852;2022-07-05T06:34:09;3.00;;;1.20;;
43327;SDS011;28923;45.412;10.852;2022-07-05T06:36:35;2.95;;;1.30;;
43327;SDS011;28923;45.412;10.852;2022-07-05T06:39:00;4.68;;;1.40;;
43327;SDS011;28923;45.412;10.852;2022-07-05T06:41:26;2.03;;;0.95;;
43327;SDS011;28923;45.412;10.852;2022-07-05T06:43:52;3.67;;;1.13;;
43327;SDS011;28923;45.412;10.852;2022-07-05T06:46:23;2.55;;;1.00;;
43327;SDS011;28923;45.412;10.852;2022-07-05T06:48:49;2.85;;;1.10;;
43327;SDS011;28923;45.412;10.852;2022-07-05T06:51:14;1.65;;;0.93;;
43327;SDS011;28923;45.412;10.852;2022-07-05T06:53:40;3.80;;;0.93;;
43327;SDS011;28923;45.412;10.852;2022-07-05T06:56:05;1.15;;;0.77;;
43327;SDS011;28923;45.412;10.852;2022-07-05T06:58:31;2.92;;;0.90;;
43327;SDS011;28923;45.412;10.852;2022-07-05T07:00:56;1.48;;;0.70;;
43327;SDS011;28923;45.412;10.852;2022-07-05T07:03:22;2.10;;;0.80;;
43327;SDS011;28923;45.412;10.852;2022-07-05T07:05:47;4.10;;;0.90;;
43327;SDS011;28923;45.412;10.852;2022-07-05T07:08:13;1.35;;;0.77;;
43327;SDS011;28923;45.412;10.852;2022-07-05T07:10:57;1.42;;;0.70;;
43327;SDS011;28923;45.412;10.852;2022-07-05T07:13:23;1.75;;;0.70;;
43327;SDS011;28923;45.412;10.852;2022-07-05T07:15:48;3.28;;;0.70;;
43327;SDS011;28923;45.412;10.852;2022-07-05T07:18:14;2.80;;;1.08;;
43327;SDS011;28923;45.412;10.852;2022-07-05T07:20:40;0.70;;;0.70;;
43327;SDS011;28923;45.412;10.852;2022-07-05T07:23:06;3.53;;;1.05;;
43327;SDS011;28923;45.412;10.852;2022-07-05T07:25:31;1.60;;;0.95;;
43327;SDS011;28923;45.412;10.852;2022-07-05T07:27:57;2.67;;;0.90;;
43327;SDS011;28923;45.412;10.852;2022-07-05T07:30:24;1.17;;;0.90;;
43327;SDS011;28923;45.412;10.852;2022-07-05T07:32:51;1.33;;;0.70;;
43327;SDS011;28923;45.412;10.852;2022-07-05T07:35:16;2.60;;;0.70;;
43327;SDS011;28923;45.412;10.852;2022-07-05T07:37:42;2.78;;;0.60;;
43327;SDS011;28923;45.412;10.852;2022-07-05T07:40:07;3.20;;;0.68;;
43327;SDS011;28923;45.412;10.852;2022-07-05T07:42:34;1.65;;;0.60;;
43327;SDS011;28923;45.412;10.852;2022-07-05T07:44:59;2.47;;;0.70;;
43327;SDS011;28923;45.412;10.852;2022-07-05T07:47:28;3.67;;;0.68;;
43327;SDS011;28923;45.412;10.852;2022-07-05T07:49:54;1.38;;;0.63;;
43327;SDS011;28923;45.412;10.852;2022-07-05T07:52:19;1.73;;;0.65;;
43327;SDS011;28923;45.412;10.852;2022-07-05T07:54:45;1.08;;;0.43;;
43327;SDS011;28923;45.412;10.852;2022-07-05T07:57:10;1.25;;;0.73;;
43327;SDS011;28923;45.412;10.852;2022-07-05T07:59:36;2.28;;;0.90;;
43327;SDS011;28923;45.412;10.852;2022-07-05T08:02:01;1.27;;;0.70;;
43327;SDS011;28923;45.412;10.852;2022-07-05T08:04:27;3.22;;;0.60;;
43327;SDS011;28923;45.412;10.852;2022-07-05T08:06:52;2.38;;;0.90;;
43327;SDS011;28923;45.412;10.852;2022-07-05T08:09:18;2.35;;;0.68;;
43327;SDS011;28923;45.412;10.852;2022-07-05T08:11:46;1.00;;;0.60;;
43327;SDS011;28923;45.412;10.852;2022-07-05T08:14:12;2.22;;;0.90;;
43327;SDS011;28923;45.412;10.852;2022-07-05T08:16:38;1.67;;;0.60;;
43327;SDS011;28923;45.412;10.852;2022-07-05T08:19:04;3.00;;;0.60;;
43327;SDS011;28923;45.412;10.852;2022-07-05T08:21:48;1.15;;;0.80;;
43327;SDS011;28923;45.412;10.852;2022-07-05T08:24:14;3.28;;;0.90;;
43327;SDS011;28923;45.412;10.852;2022-07-05T08:26:40;1.17;;;0.55;;
43327;SDS011;28923;45.412;10.852;2022-07-05T08:29:09;4.03;;;0.60;;
43327;SDS011;28923;45.412;10.852;2022-07-05T08:31:36;0.73;;;0.60;;
43327;SDS011;28923;45.412;10.852;2022-07-05T08:34:02;4.22;;;0.65;;
43327;SDS011;28923;45.412;10.852;2022-07-05T08:36:28;2.40;;;0.60;;
43327;SDS011;28923;45.412;10.852;2022-07-05T08:38:54;1.70;;;0.60;;
43327;SDS011;28923;45.412;10.852;2022-07-05T08:41:20;1.10;;;0.60;;
43327;SDS011;28923;45.412;10.852;2022-07-05T08:43:47;0.77;;;0.70;;
43327;SDS011;28923;45.412;10.852;2022-07-05T08:46:16;2.47;;;0.98;;
43327;SDS011;28923;45.412;10.852;2022-07-05T08:48:43;1.23;;;0.90;;
43327;SDS011;28923;45.412;10.852;2022-07-05T08:51:12;1.95;;;0.70;;
43327;SDS011;28923;45.412;10.852;2022-07-05T08:53:39;0.50;;;0.50;;
43327;SDS011;28923;45.412;10.852;2022-07-05T08:56:05;5.63;;;0.80;;
43327;SDS011;28923;45.412;10.852;2022-07-05T08:58:32;3.00;;;0.63;;
43327;SDS011;28923;45.412;10.852;2022-07-05T09:00:58;1.67;;;0.80;;
43327;SDS011;28923;45.412;10.852;2022-07-05T09:03:24;2.92;;;0.80;;
43327;SDS011;28923;45.412;10.852;2022-07-05T09:05:52;1.00;;;0.70;;
43327;SDS011;28923;45.412;10.852;2022-07-05T09:08:21;4.22;;;1.00;;
43327;SDS011;28923;45.412;10.852;2022-07-05T09:10:47;1.85;;;0.60;;
43327;SDS011;28923;45.412;10.852;2022-07-05T09:13:13;0.60;;;0.60;;
43327;SDS011;28923;45.412;10.852;2022-07-05T09:15:39;2.35;;;0.77;;
43327;SDS011;28923;45.412;10.852;2022-07-05T09:18:05;2.65;;;0.70;;
43327;SDS011;28923;45.412;10.852;2022-07-05T09:20:30;0.85;;;0.65;;
43327;SDS011;28923;45.412;10.852;2022-07-05T09:22:56;2.70;;;1.05;;
43327;SDS011;28923;45.412;10.852;2022-07-05T09:25:31;2.92;;;0.73;;
43327;SDS011;28923;45.412;10.852;2022-07-05T09:33:10;0.73;;;0.50;;
43327;SDS011;28923;45.412;10.852;2022-07-05T09:35:43;1.00;;;0.70;;
43327;SDS011;28923;45.412;10.852;2022-07-05T09:38:18;2.95;;;0.90;;
43327;SDS011;28923;45.412;10.852;2022-07-05T09:40:49;1.00;;;0.70;;
43327;SDS011;28923;45.412;10.852;2022-07-05T09:43:16;1.20;;;0.50;;
43327;SDS011;28923;45.412;10.852;2022-07-05T09:46:04;0.80;;;0.70;;
43327;SDS011;28923;45.412;10.852;2022-07-05T09:48:29;2.67;;;0.60;;
43327;SDS011;28923;45.412;10.852;2022-07-05T09:51:11;2.92;;;0.88;;
43327;SDS011;28923;45.412;10.852;2022-07-05T09:54:10;2.05;;;0.80;;
43327;SDS011;28923;45.412;10.852;2022-07-05T09:56:29;0.93;;;0.55;;
43327;SDS011;28923;45.412;10.852;2022-07-05T09:58:54;1.48;;;0.65;;
43327;SDS011;28923;45.412;10.852;2022-07-05T10:03:52;1.58;;;0.50;;
43327;SDS011;28923;45.412;10.852;2022-07-05T10:06:19;1.67;;;0.65;;
43327;SDS011;28923;45.412;10.852;2022-07-05T10:08:44;1.00;;;0.50;;
43327;SDS011;28923;45.412;10.852;2022-07-05T10:11:10;3.47;;;0.65;;
43327;SDS011;28923;45.412;10.852;2022-07-05T10:13:36;0.77;;;0.45;;
43327;SDS011;28923;45.412;10.852;2022-07-05T10:16:02;0.85;;;0.45;;
43327;SDS011;28923;45.412;10.852;2022-07-05T10:18:28;1.10;;;0.50;;
43327;SDS011;28923;45.412;10.852;2022-07-05T10:20:56;1.05;;;0.55;;
43327;SDS011;28923;45.412;10.852;2022-07-05T10:23:24;2.10;;;0.60;;
43327;SDS011;28923;45.412;10.852;2022-07-05T10:25:50;2.92;;;0.60;;
43327;SDS011;28923;45.412;10.852;2022-07-05T10:28:17;0.98;;;0.60;;
43327;SDS011;28923;45.412;10.852;2022-07-05T10:30:46;0.55;;;0.52;;
43327;SDS011;28923;45.412;10.852;2022-07-05T10:33:12;0.73;;;0.40;;
43327;SDS011;28923;45.412;10.852;2022-07-05T10:35:45;0.40;;;0.40;;
43327;SDS011;28923;45.412;10.852;2022-07-05T10:38:11;1.48;;;0.65;;
43327;SDS011;28923;45.412;10.852;2022-07-05T10:40:37;0.50;;;0.38;;
43327;SDS011;28923;45.412;10.852;2022-07-05T10:43:03;1.70;;;0.57;;
43327;SDS011;28923;45.412;10.852;2022-07-05T10:45:35;2.03;;;0.40;;
43327;SDS011;28923;45.412;10.852;2022-07-05T10:50:29;0.50;;;0.50;;
43327;SDS011;28923;45.412;10.852;2022-07-05T10:53:07;1.55;;;0.50;;
43327;SDS011;28923;45.412;10.852;2022-07-05T10:55:43;1.85;;;0.70;;
43327;SDS011;28923;45.412;10.852;2022-07-05T10:58:18;0.40;;;0.35;;
43327;SDS011;28923;45.412;10.852;2022-07-05T11:00:45;0.80;;;0.50;;
43327;SDS011;28923;45.412;10.852;2022-07-05T11:03:44;0.75;;;0.50;;
43327;SDS011;28923;45.412;10.852;2022-07-05T11:06:03;2.22;;;0.50;;
43327;SDS011;28923;45.412;10.852;2022-07-05T11:08:30;3.60;;;0.80;;
43327;SDS011;28923;45.412;10.852;2022-07-05T11:11:13;1.20;;;0.50;;
43327;SDS011;28923;45.412;10.852;2022-07-05T11:13:39;0.50;;;0.40;;
43327;SDS011;28923;45.412;10.852;2022-07-05T11:16:21;1.58;;;0.40;;
43327;SDS011;28923;45.412;10.852;2022-07-05T11:18:49;0.85;;;0.70;;
43327;SDS011;28923;45.412;10.852;2022-07-05T11:21:21;1.05;;;0.47;;
43327;SDS011;28923;45.412;10.852;2022-07-05T11:23:47;2.30;;;0.65;;
43327;SDS011;28923;45.412;10.852;2022-07-05T11:26:12;0.73;;;0.50;;
43327;SDS011;28923;45.412;10.852;2022-07-05T11:28:45;0.82;;;0.40;;
43327;SDS011;28923;45.412;10.852;2022-07-05T11:31:11;0.50;;;0.40;;
43327;SDS011;28923;45.412;10.852;2022-07-05T11:33:38;1.08;;;0.60;;
43327;SDS011;28923;45.412;10.852;2022-07-05T11:36:05;0.75;;;0.60;;
43327;SDS011;28923;45.412;10.852;2022-07-05T11:38:32;1.55;;;0.60;;
43327;SDS011;28923;45.412;10.852;2022-07-05T11:41:13;0.60;;;0.40;;
43327;SDS011;28923;45.412;10.852;2022-07-05T11:43:38;1.08;;;0.40;;
43327;SDS011;28923;45.412;10.852;2022-07-05T11:46:06;0.90;;;0.50;;
43327;SDS011;28923;45.412;10.852;2022-07-05T11:48:32;0.95;;;0.30;;
43327;SDS011;28923;45.412;10.852;2022-07-05T11:50:58;1.48;;;0.45;;
43327;SDS011;28923;45.412;10.852;2022-07-05T11:53:28;0.50;;;0.40;;
43327;SDS011;28923;45.412;10.852;2022-07-05T11:55:54;0.85;;;0.40;;
43327;SDS011;28923;45.412;10.852;2022-07-05T11:58:22;1.40;;;0.60;;
43327;SDS011;28923;45.412;10.852;2022-07-05T12:00:53;0.98;;;0.40;;
43327;SDS011;28923;45.412;10.852;2022-07-05T12:03:19;1.90;;;0.60;;
43327;SDS011;28923;45.412;10.852;2022-07-05T12:05:44;0.20;;;0.20;;
43327;SDS011;28923;45.412;10.852;2022-07-05T12:08:10;0.93;;;0.40;;
43327;SDS011;28923;45.412;10.852;2022-07-05T12:10:36;0.52;;;0.32;;
43327;SDS011;28923;45.412;10.852;2022-07-05T12:13:20;0.43;;;0.30;;
43327;SDS011;28923;45.412;10.852;2022-07-05T12:15:45;0.50;;;0.32;;
43327;SDS011;28923;45.412;10.852;2022-07-05T12:18:11;6.25;;;0.57;;
43327;SDS011;28923;45.412;10.852;2022-07-05T12:20:38;2.90;;;0.75;;
43327;SDS011;28923;45.412;10.852;2022-07-05T12:23:04;3.30;;;0.63;;
43327;SDS011;28923;45.412;10.852;2022-07-05T12:25:30;2.25;;;0.60;;
43327;SDS011;28923;45.412;10.852;2022-07-05T12:27:57;1.38;;;0.60;;
43327;SDS011;28923;45.412;10.852;2022-07-05T12:30:23;0.70;;;0.50;;
43327;SDS011;28923;45.412;10.852;2022-07-05T12:38:00;2.15;;;0.88;;
43327;SDS011;28923;45.412;10.852;2022-07-05T12:40:26;6.10;;;0.70;;
43327;SDS011;28923;45.412;10.852;2022-07-05T12:43:09;7.78;;;0.85;;
43327;SDS011;28923;45.412;10.852;2022-07-05T12:45:35;3.22;;;0.82;;
43327;SDS011;28923;45.412;10.852;2022-07-05T12:48:03;4.53;;;0.75;;
43327;SDS011;28923;45.412;10.852;2022-07-05T12:50:30;2.88;;;0.90;;
43327;SDS011;28923;45.412;10.852;2022-07-05T12:53:11;1.63;;;0.80;;
43327;SDS011;28923;45.412;10.852;2022-07-05T12:56:00;3.55;;;1.00;;
43327;SDS011;28923;45.412;10.852;2022-07-05T12:58:46;0.70;;;0.60;;
43327;SDS011;28923;45.412;10.852;2022-07-05T13:01:21;3.03;;;0.70;;
43327;SDS011;28923;45.412;10.852;2022-07-05T13:06:21;3.28;;;0.77;;
43327;SDS011;28923;45.412;10.852;2022-07-05T13:08:56;1.80;;;0.63;;
43327;SDS011;28923;45.412;10.852;2022-07-05T13:11:30;3.58;;;0.90;;
43327;SDS011;28923;45.412;10.852;2022-07-05T13:13:56;2.13;;;0.80;;
43327;SDS011;28923;45.412;10.852;2022-07-05T13:16:21;1.40;;;0.80;;
43327;SDS011;28923;45.412;10.852;2022-07-05T13:18:47;3.13;;;0.77;;
43327;SDS011;28923;45.412;10.852;2022-07-05T13:21:13;2.70;;;0.93;;
43327;SDS011;28923;45.412;10.852;2022-07-05T13:23:38;3.05;;;0.82;;
43327;SDS011;28923;45.412;10.852;2022-07-05T13:26:04;2.30;;;1.15;;
43327;SDS011;28923;45.412;10.852;2022-07-05T13:28:30;1.52;;;0.82;;
43327;SDS011;28923;45.412;10.852;2022-07-05T13:30:56;3.08;;;0.65;;
43327;SDS011;28923;45.412;10.852;2022-07-05T13:33:21;0.98;;;0.55;;
43327;SDS011;28923;45.412;10.852;2022-07-05T13:35:47;1.48;;;0.60;;
43327;SDS011;28923;45.412;10.852;2022-07-05T13:38:12;1.30;;;0.60;;
43327;SDS011;28923;45.412;10.852;2022-07-05T13:40:38;3.30;;;0.70;;
43327;SDS011;28923;45.412;10.852;2022-07-05T13:43:05;1.85;;;0.73;;
43327;SDS011;28923;45.412;10.852;2022-07-05T13:45:31;1.77;;;0.70;;
43327;SDS011;28923;45.412;10.852;2022-07-05T13:47:57;1.00;;;0.73;;
43327;SDS011;28923;45.412;10.852;2022-07-05T13:50:22;4.38;;;0.65;;
43327;SDS011;28923;45.412;10.852;2022-07-05T13:53:00;1.63;;;0.70;;
43327;SDS011;28923;45.412;10.852;2022-07-05T13:55:26;2.45;;;0.90;;
43327;SDS011;28923;45.412;10.852;2022-07-05T13:57:52;1.38;;;0.63;;
43327;SDS011;28923;45.412;10.852;2022-07-05T14:00:18;1.60;;;0.57;;
43327;SDS011;28923;45.412;10.852;2022-07-05T14:02:44;0.60;;;0.50;;
43327;SDS011;28923;45.412;10.852;2022-07-05T14:05:10;0.98;;;0.40;;
43327;SDS011;28923;45.412;10.852;2022-07-05T14:07:36;0.63;;;0.38;;
43327;SDS011;28923;45.412;10.852;2022-07-05T14:10:04;0.80;;;0.60;;
43327;SDS011;28923;45.412;10.852;2022-07-05T14:12:30;1.40;;;0.80;;
43327;SDS011;28923;45.412;10.852;2022-07-05T14:14:56;1.55;;;0.60;;
43327;SDS011;28923;45.412;10.852;2022-07-05T14:17:22;1.58;;;0.60;;
43327;SDS011;28923;45.412;10.852;2022-07-05T14:19:47;0.60;;;0.43;;
43327;SDS011;28923;45.412;10.852;2022-07-05T14:22:13;1.15;;;0.60;;
43327;SDS011;28923;45.412;10.852;2022-07-05T14:24:39;0.80;;;0.70;;
43327;SDS011;28923;45.412;10.852;2022-07-05T14:27:05;1.15;;;0.70;;
43327;SDS011;28923;45.412;10.852;2022-07-05T14:29:34;0.75;;;0.60;;
43327;SDS011;28923;45.412;10.852;2022-07-05T14:31:59;0.73;;;0.40;;
43327;SDS011;28923;45.412;10.852;2022-07-05T14:34:25;1.17;;;0.70;;
43327;SDS011;28923;45.412;10.852;2022-07-05T14:36:53;0.88;;;0.63;;
43327;SDS011;28923;45.412;10.852;2022-07-05T14:39:18;1.98;;;0.50;;
43327;SDS011;28923;45.412;10.852;2022-07-05T14:41:45;1.25;;;0.60;;
43327;SDS011;28923;45.412;10.852;2022-07-05T14:44:11;1.65;;;0.43;;
43327;SDS011;28923;45.412;10.852;2022-07-05T14:46:36;0.57;;;0.50;;
43327;SDS011;28923;45.412;10.852;2022-07-05T14:49:02;1.80;;;0.57;;
43327;SDS011;28923;45.412;10.852;2022-07-05T14:51:28;0.40;;;0.40;;